sensor_id;sensor_type;location;lat;lon;timestamp;pressure;altitude;pressure_sealevel;temperature;humidity
82395;BME280;72031;51.786;4.662;2024-02-26T00:01:07;99892.41;;;7.50;76.05
82395;BME280;72031;51.786;4.662;2024-02-26T00:03:33;99894.31;;;7.48;76.07
82395;BME280;72031;51.786;4.662;2024-02-26T00:06:01;99890.25;;;7.55;75.81
82395;BME280;72031;51.786;4.662;2024-02-26T00:08:27;99898.75;;;7.60;75.76
82395;BME280;72031;51.786;4.662;2024-02-26T00:10:53;99895.69;;;7.53;75.86
82395;BME280;72031;51.786;4.662;2024-02-26T00:13:19;99898.63;;;7.61;75.87
82395;BME280;72031;51.786;4.662;2024-02-26T00:15:45;99892.91;;;7.55;75.95
82395;BME280;72031;51.786;4.662;2024-02-26T00:18:11;99895.56;;;7.55;75.90
82395;BME280;72031;51.786;4.662;2024-02-26T00:20:36;99893.88;;;7.54;76.08
82395;BME280;72031;51.786;4.662;2024-02-26T00:23:02;99907.78;;;7.57;75.83
82395;BME280;72031;51.786;4.662;2024-02-26T00:25:27;99899.91;;;7.56;75.54
82395;BME280;72031;51.786;4.662;2024-02-26T00:27:53;99896.09;;;7.60;75.89
82395;BME280;72031;51.786;4.662;2024-02-26T00:30:18;99903.53;;;7.55;75.69
82395;BME280;72031;51.786;4.662;2024-02-26T00:32:44;99893.66;;;7.57;75.67
82395;BME280;72031;51.786;4.662;2024-02-26T00:35:09;99890.06;;;7.58;75.47
82395;BME280;72031;51.786;4.662;2024-02-26T00:37:35;99895.56;;;7.55;75.98
82395;BME280;72031;51.786;4.662;2024-02-26T00:40:00;99892.31;;;7.51;75.29
82395;BME280;72031;51.786;4.662;2024-02-26T00:42:26;99896.75;;;7.51;75.65
82395;BME280;72031;51.786;4.662;2024-02-26T00:44:51;99888.91;;;7.49;75.61
82395;BME280;72031;51.786;4.662;2024-02-26T00:47:17;99893.16;;;7.52;75.38
82395;BME280;72031;51.786;4.662;2024-02-26T00:49:42;99895.28;;;7.47;75.60
82395;BME280;72031;51.786;4.662;2024-02-26T00:52:07;99891.47;;;7.38;75.84
82395;BME280;72031;51.786;4.662;2024-02-26T00:54:33;99899.31;;;7.40;76.05
82395;BME280;72031;51.786;4.662;2024-02-26T00:56:58;99908.53;;;7.47;75.59
82395;BME280;72031;51.786;4.662;2024-02-26T00:59:24;99909.50;;;7.46;75.78
82395;BME280;72031;51.786;4.662;2024-02-26T01:01:49;99925.88;;;7.40;75.70
82395;BME280;72031;51.786;4.662;2024-02-26T01:04:14;99933.81;;;7.40;76.10
82395;BME280;72031;51.786;4.662;2024-02-26T01:06:40;99936.94;;;7.33;76.36
82395;BME280;72031;51.786;4.662;2024-02-26T01:09:06;99933.75;;;7.41;76.40
82395;BME280;72031;51.786;4.662;2024-02-26T01:11:31;99931.81;;;7.43;76.50
82395;BME280;72031;51.786;4.662;2024-02-26T01:13:57;99923.84;;;7.43;76.19
82395;BME280;72031;51.786;4.662;2024-02-26T01:16:23;99922.78;;;7.46;75.81
82395;BME280;72031;51.786;4.662;2024-02-26T01:18:48;99920.66;;;7.51;75.69
82395;BME280;72031;51.786;4.662;2024-02-26T01:21:14;99920.66;;;7.51;75.71
82395;BME280;72031;51.786;4.662;2024-02-26T01:23:39;99919.06;;;7.48;75.59
82395;BME280;72031;51.786;4.662;2024-02-26T01:26:05;99914.31;;;7.41;75.72
82395;BME280;72031;51.786;4.662;2024-02-26T01:28:30;99914.94;;;7.44;76.21
82395;BME280;72031;51.786;4.662;2024-02-26T01:30:56;99911.75;;;7.39;76.30
82395;BME280;72031;51.786;4.662;2024-02-26T01:33:21;99932.13;;;7.39;75.71
82395;BME280;72031;51.786;4.662;2024-02-26T01:35:47;99927.59;;;7.41;75.84
82395;BME280;72031;51.786;4.662;2024-02-26T01:38:13;99933.81;;;7.40;75.90
82395;BME280;72031;51.786;4.662;2024-02-26T01:40:38;99950.06;;;7.48;75.92
82395;BME280;72031;51.786;4.662;2024-02-26T01:43:03;99954.88;;;7.43;76.05
82395;BME280;72031;51.786;4.662;2024-02-26T01:45:29;99954.13;;;7.41;75.78
82395;BME280;72031;51.786;4.662;2024-02-26T01:47:55;99954.22;;;7.39;76.17
82395;BME280;72031;51.786;4.662;2024-02-26T01:50:21;99953.81;;;7.32;76.30
82395;BME280;72031;51.786;4.662;2024-02-26T01:52:50;99955.94;;;7.27;76.07
82395;BME280;72031;51.786;4.662;2024-02-26T01:55:17;99951.81;;;7.23;76.34
82395;BME280;72031;51.786;4.662;2024-02-26T01:57:45;99961.38;;;7.26;76.44
82395;BME280;72031;51.786;4.662;2024-02-26T02:00:12;99951.59;;;7.26;76.30
82395;BME280;72031;51.786;4.662;2024-02-26T02:02:39;99946.50;;;7.23;76.65
82395;BME280;72031;51.786;4.662;2024-02-26T02:05:08;99958.28;;;7.19;76.35
82395;BME280;72031;51.786;4.662;2024-02-26T02:07:35;99958.81;;;7.12;76.66
82395;BME280;72031;51.786;4.662;2024-02-26T02:10:01;99951.94;;;7.09;77.24
82395;BME280;72031;51.786;4.662;2024-02-26T02:12:27;99954.78;;;7.06;77.12
82395;BME280;72031;51.786;4.662;2024-02-26T02:14:53;99956.69;;;7.04;77.56
82395;BME280;72031;51.786;4.662;2024-02-26T02:17:20;99957.75;;;7.01;77.74
82395;BME280;72031;51.786;4.662;2024-02-26T02:19:46;99963.91;;;7.02;77.92
82395;BME280;72031;51.786;4.662;2024-02-26T02:22:11;99962.31;;;7.12;77.58
82395;BME280;72031;51.786;4.662;2024-02-26T02:24:36;99958.19;;;7.08;77.46
82395;BME280;72031;51.786;4.662;2024-02-26T02:27:03;99957.44;;;7.06;77.68
82395;BME280;72031;51.786;4.662;2024-02-26T02:29:28;99965.38;;;7.06;77.69
82395;BME280;72031;51.786;4.662;2024-02-26T02:31:55;99965.94;;;7.11;77.97
82395;BME280;72031;51.786;4.662;2024-02-26T02:34:21;99972.41;;;7.07;78.38
82395;BME280;72031;51.786;4.662;2024-02-26T02:36:49;99967.31;;;7.04;78.28
82395;BME280;72031;51.786;4.662;2024-02-26T02:39:16;99977.06;;;7.03;78.67
82395;BME280;72031;51.786;4.662;2024-02-26T02:41:41;99980.47;;;7.05;78.81
82395;BME280;72031;51.786;4.662;2024-02-26T02:44:07;99977.19;;;7.02;78.87
82395;BME280;72031;51.786;4.662;2024-02-26T02:46:32;99977.81;;;6.93;79.44
82395;BME280;72031;51.786;4.662;2024-02-26T02:49:00;99983.22;;;6.91;79.99
82395;BME280;72031;51.786;4.662;2024-02-26T02:51:25;99983.97;;;6.93;79.63
82395;BME280;72031;51.786;4.662;2024-02-26T02:53:51;99985.03;;;6.91;79.90
82395;BME280;72031;51.786;4.662;2024-02-26T02:56:16;99978.56;;;6.82;80.35
82395;BME280;72031;51.786;4.662;2024-02-26T02:58:42;99976.00;;;6.81;80.05
82395;BME280;72031;51.786;4.662;2024-02-26T03:01:07;99977.28;;;6.75;80.40
82395;BME280;72031;51.786;4.662;2024-02-26T03:03:32;99979.59;;;6.80;80.95
82395;BME280;72031;51.786;4.662;2024-02-26T03:05:58;99980.66;;;6.77;80.76
82395;BME280;72031;51.786;4.662;2024-02-26T03:08:24;99982.16;;;6.81;80.74
82395;BME280;72031;51.786;4.662;2024-02-26T03:10:51;99973.88;;;6.86;80.32
82395;BME280;72031;51.786;4.662;2024-02-26T03:13:16;99979.59;;;6.80;80.46
82395;BME280;72031;51.786;4.662;2024-02-26T03:15:42;99976.44;;;6.74;80.64
82395;BME280;72031;51.786;4.662;2024-02-26T03:18:07;99980.78;;;6.75;80.74
82395;BME280;72031;51.786;4.662;2024-02-26T03:20:33;99987.22;;;6.71;80.35
82395;BME280;72031;51.786;4.662;2024-02-26T03:22:58;99983.59;;;6.72;80.71
82395;BME280;72031;51.786;4.662;2024-02-26T03:25:24;99984.50;;;6.73;80.88
82395;BME280;72031;51.786;4.662;2024-02-26T03:27:49;99980.97;;;6.72;81.12
82395;BME280;72031;51.786;4.662;2024-02-26T03:30:15;99986.47;;;6.69;80.83
82395;BME280;72031;51.786;4.662;2024-02-26T03:32:41;99985.75;;;6.67;80.79
82395;BME280;72031;51.786;4.662;2024-02-26T03:35:07;99993.16;;;6.62;81.22
82395;BME280;72031;51.786;4.662;2024-02-26T03:37:34;99987.66;;;6.65;81.10
82395;BME280;72031;51.786;4.662;2024-02-26T03:39:59;99987.66;;;6.65;81.02
82395;BME280;72031;51.786;4.662;2024-02-26T03:42:26;99991.44;;;6.61;80.97
82395;BME280;72031;51.786;4.662;2024-02-26T03:44:52;99991.66;;;6.58;80.68
82395;BME280;72031;51.786;4.662;2024-02-26T03:47:17;99991.44;;;6.61;80.95
82395;BME280;72031;51.786;4.662;2024-02-26T03:49:43;99990.59;;;6.61;80.88
82395;BME280;72031;51.786;4.662;2024-02-26T03:52:08;99996.56;;;6.64;80.65
82395;BME280;72031;51.786;4.662;2024-02-26T03:54:34;100000.81;;;6.67;80.80
82395;BME280;72031;51.786;4.662;2024-02-26T03:56:59;100000.41;;;6.73;80.18
82395;BME280;72031;51.786;4.662;2024-02-26T03:59:24;99998.66;;;6.72;80.02
82395;BME280;72031;51.786;4.662;2024-02-26T04:01:50;100002.38;;;6.69;80.28
82395;BME280;72031;51.786;4.662;2024-02-26T04:04:16;100001.75;;;6.66;79.92
82395;BME280;72031;51.786;4.662;2024-02-26T04:06:48;100010.34;;;6.57;79.96
82395;BME280;72031;51.786;4.662;2024-02-26T04:09:14;100011.81;;;6.61;80.81
82395;BME280;72031;51.786;4.662;2024-02-26T04:11:40;100008.41;;;6.59;80.38
82395;BME280;72031;51.786;4.662;2024-02-26T04:14:05;100018.19;;;6.58;80.23
82395;BME280;72031;51.786;4.662;2024-02-26T04:16:34;100014.56;;;6.59;80.83
82395;BME280;72031;51.786;4.662;2024-02-26T04:19:01;100017.13;;;6.61;80.57
82395;BME280;72031;51.786;4.662;2024-02-26T04:21:26;100018.19;;;6.58;80.52
82395;BME280;72031;51.786;4.662;2024-02-26T04:23:52;100024.09;;;6.49;81.14
82395;BME280;72031;51.786;4.662;2024-02-26T04:26:20;100015.19;;;6.50;81.03
82395;BME280;72031;51.786;4.662;2024-02-26T04:28:46;100017.28;;;6.45;81.38
82395;BME280;72031;51.786;4.662;2024-02-26T04:31:12;100019.75;;;6.48;81.35
82395;BME280;72031;51.786;4.662;2024-02-26T04:33:37;100013.66;;;6.46;81.05
82395;BME280;72031;51.786;4.662;2024-02-26T04:36:03;100017.59;;;6.40;81.66
82395;BME280;72031;51.786;4.662;2024-02-26T04:38:28;100017.59;;;6.40;81.78
82395;BME280;72031;51.786;4.662;2024-02-26T04:40:54;100021.09;;;6.41;81.62
82395;BME280;72031;51.786;4.662;2024-02-26T04:43:19;100028.72;;;6.45;81.57
82395;BME280;72031;51.786;4.662;2024-02-26T04:45:45;100018.78;;;6.49;81.38
82395;BME280;72031;51.786;4.662;2024-02-26T04:48:10;100027.88;;;6.45;81.66
82395;BME280;72031;51.786;4.662;2024-02-26T04:50:36;100034.69;;;6.49;81.14
82395;BME280;72031;51.786;4.662;2024-02-26T04:53:01;100033.72;;;6.50;81.02
82395;BME280;72031;51.786;4.662;2024-02-26T04:55:28;100034.88;;;6.46;81.42
82395;BME280;72031;51.786;4.662;2024-02-26T04:57:53;100031.28;;;6.47;81.24
82395;BME280;72031;51.786;4.662;2024-02-26T05:00:19;100040.38;;;6.43;81.68
82395;BME280;72031;51.786;4.662;2024-02-26T05:02:45;100044.16;;;6.39;81.30
82395;BME280;72031;51.786;4.662;2024-02-26T05:05:11;100039.31;;;6.45;81.41
82395;BME280;72031;51.786;4.662;2024-02-26T05:07:41;100044.44;;;6.48;80.91
82395;BME280;72031;51.786;4.662;2024-02-26T05:10:08;100048.69;;;6.51;80.90
82395;BME280;72031;51.786;4.662;2024-02-26T05:12:33;100050.38;;;6.52;80.68
82395;BME280;72031;51.786;4.662;2024-02-26T05:15:01;100051.56;;;6.48;81.03
82395;BME280;72031;51.786;4.662;2024-02-26T05:17:27;100051.44;;;6.49;80.93
82395;BME280;72031;51.786;4.662;2024-02-26T05:19:52;100056.84;;;6.48;80.52
82395;BME280;72031;51.786;4.662;2024-02-26T05:22:17;100059.06;;;6.54;80.79
82395;BME280;72031;51.786;4.662;2024-02-26T05:24:43;100060.03;;;6.53;80.61
82395;BME280;72031;51.786;4.662;2024-02-26T05:27:09;100062.69;;;6.53;80.37
82395;BME280;72031;51.786;4.662;2024-02-26T05:29:35;100067.34;;;6.49;80.20
82395;BME280;72031;51.786;4.662;2024-02-26T05:32:00;100068.38;;;6.47;80.74
82395;BME280;72031;51.786;4.662;2024-02-26T05:34:26;100075.59;;;6.45;81.35
82395;BME280;72031;51.786;4.662;2024-02-26T05:36:51;100080.69;;;6.48;80.72
82395;BME280;72031;51.786;4.662;2024-02-26T05:39:17;100093.84;;;6.49;80.91
82395;BME280;72031;51.786;4.662;2024-02-26T05:41:42;100086.53;;;6.53;80.96
82395;BME280;72031;51.786;4.662;2024-02-26T05:44:08;100095.66;;;6.49;80.93
82395;BME280;72031;51.786;4.662;2024-02-26T05:46:35;100095.34;;;6.54;80.71
82395;BME280;72031;51.786;4.662;2024-02-26T05:49:01;100087.81;;;6.47;81.15
82395;BME280;72031;51.786;4.662;2024-02-26T05:51:26;100094.69;;;6.50;80.51
82395;BME280;72031;51.786;4.662;2024-02-26T05:53:52;100100.84;;;6.51;80.99
82395;BME280;72031;51.786;4.662;2024-02-26T05:56:23;100105.09;;;6.53;80.91
82395;BME280;72031;51.786;4.662;2024-02-26T05:58:49;100116.97;;;6.47;81.09
82395;BME280;72031;51.786;4.662;2024-02-26T06:01:17;100123.84;;;6.50;80.76
82395;BME280;72031;51.786;4.662;2024-02-26T06:03:43;100122.91;;;6.51;80.90
82395;BME280;72031;51.786;4.662;2024-02-26T06:06:10;100128.31;;;6.49;81.08
82395;BME280;72031;51.786;4.662;2024-02-26T06:08:36;100132.56;;;6.52;80.76
82395;BME280;72031;51.786;4.662;2024-02-26T06:11:05;100137.84;;;6.52;80.90
82395;BME280;72031;51.786;4.662;2024-02-26T06:13:31;100138.44;;;6.43;81.03
82395;BME280;72031;51.786;4.662;2024-02-26T06:15:57;100142.22;;;6.39;81.39
82395;BME280;72031;51.786;4.662;2024-02-26T06:18:22;100145.81;;;6.38;81.84
82395;BME280;72031;51.786;4.662;2024-02-26T06:20:48;100152.66;;;6.42;81.53
82395;BME280;72031;51.786;4.662;2024-02-26T06:23:13;100150.00;;;6.42;81.35
82395;BME280;72031;51.786;4.662;2024-02-26T06:25:39;100149.03;;;6.43;81.02
82395;BME280;72031;51.786;4.662;2024-02-26T06:28:04;100158.22;;;6.37;81.46
82395;BME280;72031;51.786;4.662;2024-02-26T06:30:30;100155.56;;;6.37;81.69
82395;BME280;72031;51.786;4.662;2024-02-26T06:32:55;100166.94;;;6.39;81.38
82395;BME280;72031;51.786;4.662;2024-02-26T06:35:21;100159.91;;;6.38;81.48
82395;BME280;72031;51.786;4.662;2024-02-26T06:37:46;100163.41;;;6.39;81.58
82395;BME280;72031;51.786;4.662;2024-02-26T06:40:12;100167.97;;;6.37;81.97
82395;BME280;72031;51.786;4.662;2024-02-26T06:42:37;100176.59;;;6.40;82.11
82395;BME280;72031;51.786;4.662;2024-02-26T06:45:04;100174.81;;;6.41;81.81
82395;BME280;72031;51.786;4.662;2024-02-26T06:47:29;100183.88;;;6.37;82.24
82395;BME280;72031;51.786;4.662;2024-02-26T06:49:55;100182.94;;;6.38;82.29
82395;BME280;72031;51.786;4.662;2024-02-26T06:52:23;100189.66;;;6.43;81.89
82395;BME280;72031;51.786;4.662;2024-02-26T06:54:50;100189.84;;;6.40;81.81
82395;BME280;72031;51.786;4.662;2024-02-26T06:57:16;100189.66;;;6.43;81.65
82395;BME280;72031;51.786;4.662;2024-02-26T06:59:41;100190.50;;;6.44;81.88
82395;BME280;72031;51.786;4.662;2024-02-26T07:02:11;100198.19;;;6.48;82.09
82395;BME280;72031;51.786;4.662;2024-02-26T07:04:36;100202.63;;;6.48;81.91
82395;BME280;72031;51.786;4.662;2024-02-26T07:07:02;100203.53;;;6.47;82.18
82395;BME280;72031;51.786;4.662;2024-02-26T07:09:27;100210.84;;;6.43;82.14
82395;BME280;72031;51.786;4.662;2024-02-26T07:11:53;100209.34;;;6.39;82.95
82395;BME280;72031;51.786;4.662;2024-02-26T07:14:18;100210.00;;;6.43;82.35
82395;BME280;72031;51.786;4.662;2024-02-26T07:16:44;100224.22;;;6.42;82.54
82395;BME280;72031;51.786;4.662;2024-02-26T07:19:11;100223.06;;;6.46;82.49
82395;BME280;72031;51.786;4.662;2024-02-26T07:21:36;100227.41;;;6.47;82.82
82395;BME280;72031;51.786;4.662;2024-02-26T07:24:02;100227.34;;;6.48;83.16
82395;BME280;72031;51.786;4.662;2024-02-26T07:26:27;100225.53;;;6.49;82.99
82395;BME280;72031;51.786;4.662;2024-02-26T07:28:55;100231.56;;;6.37;83.31
82395;BME280;72031;51.786;4.662;2024-02-26T07:31:20;100229.97;;;6.34;83.30
82395;BME280;72031;51.786;4.662;2024-02-26T07:33:46;100236.34;;;6.32;83.79
82395;BME280;72031;51.786;4.662;2024-02-26T07:36:11;100247.09;;;6.29;83.46
82395;BME280;72031;51.786;4.662;2024-02-26T07:38:38;100247.66;;;6.19;84.15
82395;BME280;72031;51.786;4.662;2024-02-26T07:41:04;100250.41;;;6.18;84.14
82395;BME280;72031;51.786;4.662;2024-02-26T07:43:30;100241.63;;;6.17;84.76
82395;BME280;72031;51.786;4.662;2024-02-26T07:45:55;100252.97;;;6.19;84.78
82395;BME280;72031;51.786;4.662;2024-02-26T07:48:21;100248.25;;;6.25;85.42
82395;BME280;72031;51.786;4.662;2024-02-26T07:50:46;100256.56;;;6.18;85.26
82395;BME280;72031;51.786;4.662;2024-02-26T07:53:12;100257.31;;;6.20;85.10
82395;BME280;72031;51.786;4.662;2024-02-26T07:55:38;100260.66;;;6.24;85.61
82395;BME280;72031;51.786;4.662;2024-02-26T07:58:03;100266.78;;;6.25;85.39
82395;BME280;72031;51.786;4.662;2024-02-26T08:00:29;100269.44;;;6.25;85.33
82395;BME280;72031;51.786;4.662;2024-02-26T08:02:56;100271.41;;;6.21;85.29
82395;BME280;72031;51.786;4.662;2024-02-26T08:05:21;100276.66;;;6.23;85.34
82395;BME280;72031;51.786;4.662;2024-02-26T08:07:46;100286.19;;;6.25;85.37
82395;BME280;72031;51.786;4.662;2024-02-26T08:10:12;100292.94;;;6.31;85.75
82395;BME280;72031;51.786;4.662;2024-02-26T08:12:37;100293.09;;;6.28;85.50
82395;BME280;72031;51.786;4.662;2024-02-26T08:15:03;100294.25;;;6.24;85.66
82395;BME280;72031;51.786;4.662;2024-02-26T08:17:29;100304.34;;;6.17;85.83
82395;BME280;72031;51.786;4.662;2024-02-26T08:19:55;100308.50;;;6.21;85.72
82395;BME280;72031;51.786;4.662;2024-02-26T08:22:21;100312.41;;;6.15;86.02
82395;BME280;72031;51.786;4.662;2024-02-26T08:24:47;100312.00;;;6.21;86.24
82395;BME280;72031;51.786;4.662;2024-02-26T08:27:12;100316.38;;;6.23;85.91
82395;BME280;72031;51.786;4.662;2024-02-26T08:29:38;100314.09;;;6.16;86.23
82395;BME280;72031;51.786;4.662;2024-02-26T08:32:03;100326.59;;;6.14;87.00
82395;BME280;72031;51.786;4.662;2024-02-26T08:34:29;100323.75;;;6.17;86.73
82395;BME280;72031;51.786;4.662;2024-02-26T08:36:54;100338.34;;;6.25;86.64
82395;BME280;72031;51.786;4.662;2024-02-26T08:39:20;100331.22;;;6.25;86.14
82395;BME280;72031;51.786;4.662;2024-02-26T08:41:45;100334.25;;;6.19;86.63
82395;BME280;72031;51.786;4.662;2024-02-26T08:44:11;100342.88;;;6.23;87.18
82395;BME280;72031;51.786;4.662;2024-02-26T08:46:37;100338.34;;;6.25;86.92
82395;BME280;72031;51.786;4.662;2024-02-26T08:49:03;100336.53;;;6.25;87.12
82395;BME280;72031;51.786;4.662;2024-02-26T08:51:28;100340.03;;;6.26;86.88
82395;BME280;72031;51.786;4.662;2024-02-26T08:53:54;100347.41;;;6.20;87.03
82395;BME280;72031;51.786;4.662;2024-02-26T08:56:19;100353.53;;;6.21;87.97
82395;BME280;72031;51.786;4.662;2024-02-26T08:58:47;100356.28;;;6.19;87.48
82395;BME280;72031;51.786;4.662;2024-02-26T09:01:19;100351.75;;;6.21;87.35
82395;BME280;72031;51.786;4.662;2024-02-26T09:03:44;100368.59;;;6.20;87.15
82395;BME280;72031;51.786;4.662;2024-02-26T09:06:10;100364.06;;;6.23;87.47
82395;BME280;72031;51.786;4.662;2024-02-26T09:08:37;100369.38;;;6.23;87.41
82395;BME280;72031;51.786;4.662;2024-02-26T09:11:03;100369.63;;;6.18;87.22
82395;BME280;72031;51.786;4.662;2024-02-26T09:13:28;100378.72;;;6.14;88.13
82395;BME280;72031;51.786;4.662;2024-02-26T09:15:54;100380.44;;;6.15;87.86
82395;BME280;72031;51.786;4.662;2024-02-26T09:18:20;100378.44;;;6.18;88.25
82395;BME280;72031;51.786;4.662;2024-02-26T09:20:45;100383.63;;;6.20;88.10
82395;BME280;72031;51.786;4.662;2024-02-26T09:23:11;100382.78;;;6.19;87.64
82395;BME280;72031;51.786;4.662;2024-02-26T09:25:36;100387.41;;;6.16;87.61
82395;BME280;72031;51.786;4.662;2024-02-26T09:28:02;100399.72;;;6.17;87.76
82395;BME280;72031;51.786;4.662;2024-02-26T09:30:27;100399.72;;;6.17;87.88
82395;BME280;72031;51.786;4.662;2024-02-26T09:32:53;100394.91;;;6.24;87.93
82395;BME280;72031;51.786;4.662;2024-02-26T09:35:18;100399.28;;;6.25;87.73
82395;BME280;72031;51.786;4.662;2024-02-26T09:37:44;100401.72;;;6.28;87.32
82395;BME280;72031;51.786;4.662;2024-02-26T09:40:10;100419.44;;;6.27;87.54
82395;BME280;72031;51.786;4.662;2024-02-26T09:42:44;100418.56;;;6.27;87.50
82395;BME280;72031;51.786;4.662;2024-02-26T09:45:17;100417.63;;;6.28;87.24
82395;BME280;72031;51.786;4.662;2024-02-26T09:47:48;100422.19;;;6.26;87.41
82395;BME280;72031;51.786;4.662;2024-02-26T09:50:16;100429.94;;;6.29;87.60
82395;BME280;72031;51.786;4.662;2024-02-26T09:52:43;100430.44;;;6.35;87.66
82395;BME280;72031;51.786;4.662;2024-02-26T09:55:10;100433.00;;;6.37;87.57
82395;BME280;72031;51.786;4.662;2024-02-26T09:57:36;100434.69;;;6.38;87.09
82395;BME280;72031;51.786;4.662;2024-02-26T10:00:03;100444.81;;;6.31;87.54
82395;BME280;72031;51.786;4.662;2024-02-26T10:02:31;100447.63;;;6.28;87.05
82395;BME280;72031;51.786;4.662;2024-02-26T10:04:59;100457.47;;;6.26;87.59
82395;BME280;72031;51.786;4.662;2024-02-26T10:07:30;100456.63;;;6.26;87.54
82395;BME280;72031;51.786;4.662;2024-02-26T10:09:55;100469.47;;;6.17;87.45
82395;BME280;72031;51.786;4.662;2024-02-26T10:12:21;100480.81;;;6.19;87.61
82395;BME280;72031;51.786;4.662;2024-02-26T10:14:47;100468.94;;;6.27;87.61
82395;BME280;72031;51.786;4.662;2024-02-26T10:17:14;100479.88;;;6.20;87.96
82395;BME280;72031;51.786;4.662;2024-02-26T10:19:40;100483.47;;;6.19;88.06
82395;BME280;72031;51.786;4.662;2024-02-26T10:22:06;100480.66;;;6.23;87.90
82395;BME280;72031;51.786;4.662;2024-02-26T10:24:31;100486.19;;;6.18;88.21
82395;BME280;72031;51.786;4.662;2024-02-26T10:26:57;100499.53;;;6.16;87.82
82395;BME280;72031;51.786;4.662;2024-02-26T10:29:24;100495.09;;;6.17;88.24
82395;BME280;72031;51.786;4.662;2024-02-26T10:31:51;100496.28;;;6.11;88.04
82395;BME280;72031;51.786;4.662;2024-02-26T10:34:17;100515.78;;;6.10;88.06
82395;BME280;72031;51.786;4.662;2024-02-26T10:36:43;100517.25;;;6.16;88.29
82395;BME280;72031;51.786;4.662;2024-02-26T10:39:12;100507.06;;;6.08;88.55
82395;BME280;72031;51.786;4.662;2024-02-26T10:41:38;100526.38;;;6.10;87.99
82395;BME280;72031;51.786;4.662;2024-02-26T10:44:04;100528.25;;;6.08;88.60
82395;BME280;72031;51.786;4.662;2024-02-26T10:46:29;100525.34;;;6.13;88.79
82395;BME280;72031;51.786;4.662;2024-02-26T10:48:56;100528.59;;;6.18;88.64
82395;BME280;72031;51.786;4.662;2024-02-26T10:51:29;100533.03;;;6.17;87.95
82395;BME280;72031;51.786;4.662;2024-02-26T10:53:58;100530.31;;;6.19;88.30
82395;BME280;72031;51.786;4.662;2024-02-26T10:56:28;100543.97;;;6.11;88.30
82395;BME280;72031;51.786;4.662;2024-02-26T10:58:55;100544.31;;;6.05;88.74
82395;BME280;72031;51.786;4.662;2024-02-26T11:01:21;100547.75;;;6.07;88.74
82395;BME280;72031;51.786;4.662;2024-02-26T11:03:51;100548.75;;;6.05;88.50
82395;BME280;72031;51.786;4.662;2024-02-26T11:06:18;100553.63;;;6.12;88.87
82395;BME280;72031;51.786;4.662;2024-02-26T11:08:49;100562.63;;;6.10;88.97
82395;BME280;72031;51.786;4.662;2024-02-26T11:11:16;100577.47;;;6.12;88.70
82395;BME280;72031;51.786;4.662;2024-02-26T11:13:45;100574.06;;;6.10;88.87
82395;BME280;72031;51.786;4.662;2024-02-26T11:16:17;100570.13;;;6.17;88.89
82395;BME280;72031;51.786;4.662;2024-02-26T11:18:47;100579.34;;;6.10;88.81
82395;BME280;72031;51.786;4.662;2024-02-26T11:21:17;100579.19;;;6.13;89.26
82395;BME280;72031;51.786;4.662;2024-02-26T11:23:56;100589.44;;;6.19;88.93
82395;BME280;72031;51.786;4.662;2024-02-26T11:26:24;100591.16;;;6.20;89.15
82395;BME280;72031;51.786;4.662;2024-02-26T11:28:53;100589.44;;;6.19;88.86
82395;BME280;72031;51.786;4.662;2024-02-26T11:31:19;100591.00;;;6.24;88.62
82395;BME280;72031;51.786;4.662;2024-02-26T11:33:54;100598.00;;;6.25;89.08
82395;BME280;72031;51.786;4.662;2024-02-26T11:36:21;100602.97;;;6.15;88.96
82395;BME280;72031;51.786;4.662;2024-02-26T11:38:48;100602.09;;;6.14;88.94
82395;BME280;72031;51.786;4.662;2024-02-26T11:41:17;100602.44;;;6.24;89.66
82395;BME280;72031;51.786;4.662;2024-02-26T11:44:02;100602.25;;;6.27;88.94
82395;BME280;72031;51.786;4.662;2024-02-26T11:46:30;100613.13;;;6.23;88.74
82395;BME280;72031;51.786;4.662;2024-02-26T11:49:01;100607.22;;;6.17;89.63
82395;BME280;72031;51.786;4.662;2024-02-26T11:51:32;100612.19;;;6.24;89.63
82395;BME280;72031;51.786;4.662;2024-02-26T11:53:58;100611.06;;;6.28;89.18
82395;BME280;72031;51.786;4.662;2024-02-26T11:56:24;100606.38;;;6.33;89.60
82395;BME280;72031;51.786;4.662;2024-02-26T11:58:59;100614.75;;;6.41;89.64
82395;BME280;72031;51.786;4.662;2024-02-26T12:01:37;100613.97;;;6.39;89.46
82395;BME280;72031;51.786;4.662;2024-02-26T12:04:08;100619.44;;;6.36;89.14
82395;BME280;72031;51.786;4.662;2024-02-26T12:06:48;100607.13;;;6.35;89.61
82395;BME280;72031;51.786;4.662;2024-02-26T12:09:30;100622.19;;;6.34;89.37
82395;BME280;72031;51.786;4.662;2024-02-26T12:11:56;100620.16;;;6.39;89.42
82395;BME280;72031;51.786;4.662;2024-02-26T12:14:25;100625.34;;;6.41;89.50
82395;BME280;72031;51.786;4.662;2024-02-26T12:16:52;100632.50;;;6.39;89.39
82395;BME280;72031;51.786;4.662;2024-02-26T12:19:18;100627.16;;;6.40;89.29
82395;BME280;72031;51.786;4.662;2024-02-26T12:21:44;100623.47;;;6.43;89.24
82395;BME280;72031;51.786;4.662;2024-02-26T12:24:11;100639.38;;;6.43;89.79
82395;BME280;72031;51.786;4.662;2024-02-26T12:26:38;100638.44;;;6.44;89.41
82395;BME280;72031;51.786;4.662;2024-02-26T12:29:03;100642.53;;;6.49;89.71
82395;BME280;72031;51.786;4.662;2024-02-26T12:31:29;100649.28;;;6.55;89.34
82395;BME280;72031;51.786;4.662;2024-02-26T12:33:56;100658.53;;;6.48;89.01
82395;BME280;72031;51.786;4.662;2024-02-26T12:36:22;100656.66;;;6.50;89.10
82395;BME280;72031;51.786;4.662;2024-02-26T12:38:50;100653.22;;;6.48;89.11
82395;BME280;72031;51.786;4.662;2024-02-26T12:41:16;100664.69;;;6.48;89.19
82395;BME280;72031;51.786;4.662;2024-02-26T12:43:42;100668.44;;;6.44;89.35
82395;BME280;72031;51.786;4.662;2024-02-26T12:46:07;100673.97;;;6.56;89.67
82395;BME280;72031;51.786;4.662;2024-02-26T12:48:33;100674.88;;;6.56;89.65
82395;BME280;72031;51.786;4.662;2024-02-26T12:50:59;100679.13;;;6.59;89.33
82395;BME280;72031;51.786;4.662;2024-02-26T12:53:25;100677.53;;;6.56;89.05
82395;BME280;72031;51.786;4.662;2024-02-26T12:55:51;100685.38;;;6.58;89.14
82395;BME280;72031;51.786;4.662;2024-02-26T12:58:18;100686.47;;;6.69;89.22